sensor_id;sensor_type;location;lat;lon;timestamp;P1;durP1;ratioP1;P2;durP2;ratioP2
8415;SDS011;4245;42.120;24.732;2023-02-10T00:00:47;21.63;;;10.60;;
8415;SDS011;4245;42.120;24.732;2023-02-10T00:03:14;23.67;;;11.07;;
8415;SDS011;4245;42.120;24.732;2023-02-10T00:05:40;23.17;;;10.43;;
8415;SDS011;4245;42.120;24.732;2023-02-10T00:08:07;20.00;;;10.40;;
8415;SDS011;4245;42.120;24.732;2023-02-10T00:10:35;23.30;;;10.07;;
8415;SDS011;4245;42.120;24.732;2023-02-10T00:13:02;21.63;;;11.20;;
8415;SDS011;4245;42.120;24.732;2023-02-10T00:15:29;25.47;;;11.60;;
8415;SDS011;4245;42.120;24.732;2023-02-10T00:17:57;39.90;;;13.17;;
8415;SDS011;4245;42.120;24.732;2023-02-10T00:20:24;43.00;;;13.50;;
8415;SDS011;4245;42.120;24.732;2023-02-10T00:22:50;61.63;;;13.07;;
8415;SDS011;4245;42.120;24.732;2023-02-10T00:25:17;48.93;;;13.60;;
8415;SDS011;4245;42.120;24.732;2023-02-10T00:27:44;42.23;;;12.97;;
8415;SDS011;4245;42.120;24.732;2023-02-10T00:30:11;37.90;;;13.07;;
8415;SDS011;4245;42.120;24.732;2023-02-10T00:32:38;36.87;;;12.87;;
8415;SDS011;4245;42.120;24.732;2023-02-10T00:35:07;31.27;;;11.93;;
8415;SDS011;4245;42.120;24.732;2023-02-10T00:37:34;35.07;;;14.30;;
8415;SDS011;4245;42.120;24.732;2023-02-10T00:40:01;32.93;;;14.40;;
8415;SDS011;4245;42.120;24.732;2023-02-10T00:42:28;31.77;;;12.20;;
8415;SDS011;4245;42.120;24.732;2023-02-10T00:44:54;25.40;;;12.33;;
8415;SDS011;4245;42.120;24.732;2023-02-10T00:47:21;29.93;;;13.10;;
8415;SDS011;4245;42.120;24.732;2023-02-10T00:49:51;27.10;;;13.53;;
8415;SDS011;4245;42.120;24.732;2023-02-10T00:52:19;26.60;;;13.87;;
8415;SDS011;4245;42.120;24.732;2023-02-10T00:54:45;30.53;;;14.40;;
8415;SDS011;4245;42.120;24.732;2023-02-10T00:57:12;33.00;;;15.03;;
8415;SDS011;4245;42.120;24.732;2023-02-10T00:59:39;29.50;;;14.27;;
8415;SDS011;4245;42.120;24.732;2023-02-10T01:02:06;33.17;;;15.30;;
8415;SDS011;4245;42.120;24.732;2023-02-10T01:04:33;34.87;;;14.67;;
8415;SDS011;4245;42.120;24.732;2023-02-10T01:07:00;37.33;;;15.00;;
8415;SDS011;4245;42.120;24.732;2023-02-10T01:09:29;31.07;;;14.33;;
8415;SDS011;4245;42.120;24.732;2023-02-10T01:11:56;36.07;;;14.33;;
8415;SDS011;4245;42.120;24.732;2023-02-10T01:14:22;25.13;;;14.47;;
8415;SDS011;4245;42.120;24.732;2023-02-10T01:16:50;31.50;;;13.93;;
8415;SDS011;4245;42.120;24.732;2023-02-10T01:19:17;29.43;;;14.50;;
8415;SDS011;4245;42.120;24.732;2023-02-10T01:21:44;27.07;;;13.67;;
8415;SDS011;4245;42.120;24.732;2023-02-10T01:24:11;23.83;;;13.20;;
8415;SDS011;4245;42.120;24.732;2023-02-10T01:26:39;28.93;;;13.40;;
8415;SDS011;4245;42.120;24.732;2023-02-10T01:29:06;28.77;;;14.63;;
8415;SDS011;4245;42.120;24.732;2023-02-10T01:31:32;31.23;;;15.23;;
8415;SDS011;4245;42.120;24.732;2023-02-10T01:33:59;36.40;;;15.27;;
8415;SDS011;4245;42.120;24.732;2023-02-10T01:36:26;28.33;;;14.07;;
8415;SDS011;4245;42.120;24.732;2023-02-10T01:38:53;29.53;;;13.40;;
8415;SDS011;4245;42.120;24.732;2023-02-10T01:41:20;29.83;;;14.43;;
8415;SDS011;4245;42.120;24.732;2023-02-10T01:43:57;34.97;;;15.63;;
8415;SDS011;4245;42.120;24.732;2023-02-10T01:46:26;31.93;;;15.67;;
8415;SDS011;4245;42.120;24.732;2023-02-10T01:48:54;28.10;;;13.60;;
8415;SDS011;4245;42.120;24.732;2023-02-10T01:51:24;32.23;;;14.10;;
8415;SDS011;4245;42.120;24.732;2023-02-10T01:53:57;33.07;;;14.60;;
8415;SDS011;4245;42.120;24.732;2023-02-10T01:56:24;34.17;;;15.50;;
8415;SDS011;4245;42.120;24.732;2023-02-10T01:58:51;33.77;;;15.77;;
8415;SDS011;4245;42.120;24.732;2023-02-10T02:01:20;37.90;;;14.87;;
8415;SDS011;4245;42.120;24.732;2023-02-10T02:03:46;35.57;;;16.67;;
8415;SDS011;4245;42.120;24.732;2023-02-10T02:06:13;36.33;;;18.33;;
8415;SDS011;4245;42.120;24.732;2023-02-10T02:08:40;36.83;;;16.77;;
8415;SDS011;4245;42.120;24.732;2023-02-10T02:11:11;41.30;;;18.47;;
8415;SDS011;4245;42.120;24.732;2023-02-10T02:13:47;37.77;;;16.13;;
8415;SDS011;4245;42.120;24.732;2023-02-10T02:16:41;41.60;;;16.37;;
8415;SDS011;4245;42.120;24.732;2023-02-10T02:19:32;38.60;;;15.13;;
8415;SDS011;4245;42.120;24.732;2023-02-10T02:22:25;30.93;;;13.97;;
8415;SDS011;4245;42.120;24.732;2023-02-10T02:25:13;29.80;;;14.27;;
8415;SDS011;4245;42.120;24.732;2023-02-10T02:27:58;40.53;;;15.80;;
8415;SDS011;4245;42.120;24.732;2023-02-10T02:30:46;40.53;;;16.67;;
8415;SDS011;4245;42.120;24.732;2023-02-10T02:33:41;40.13;;;16.47;;
8415;SDS011;4245;42.120;24.732;2023-02-10T02:36:11;34.73;;;16.13;;
8415;SDS011;4245;42.120;24.732;2023-02-10T02:38:42;37.37;;;16.37;;
8415;SDS011;4245;42.120;24.732;2023-02-10T02:41:10;36.13;;;17.10;;
8415;SDS011;4245;42.120;24.732;2023-02-10T02:43:37;35.77;;;17.17;;
8415;SDS011;4245;42.120;24.732;2023-02-10T02:46:08;39.77;;;17.77;;
8415;SDS011;4245;42.120;24.732;2023-02-10T02:48:44;42.17;;;17.40;;
8415;SDS011;4245;42.120;24.732;2023-02-10T02:51:24;41.10;;;17.03;;
8415;SDS011;4245;42.120;24.732;2023-02-10T02:54:04;43.80;;;18.70;;
8415;SDS011;4245;42.120;24.732;2023-02-10T02:56:40;38.00;;;17.40;;
8415;SDS011;4245;42.120;24.732;2023-02-10T02:59:13;57.60;;;19.60;;
8415;SDS011;4245;42.120;24.732;2023-02-10T03:01:47;54.93;;;20.20;;
8415;SDS011;4245;42.120;24.732;2023-02-10T03:04:21;66.00;;;20.83;;
8415;SDS011;4245;42.120;24.732;2023-02-10T03:06:48;51.40;;;20.10;;
8415;SDS011;4245;42.120;24.732;2023-02-10T03:09:15;43.40;;;18.93;;
8415;SDS011;4245;42.120;24.732;2023-02-10T03:11:41;44.60;;;19.00;;
8415;SDS011;4245;42.120;24.732;2023-02-10T03:14:08;36.63;;;17.97;;
8415;SDS011;4245;42.120;24.732;2023-02-10T03:16:35;41.60;;;17.40;;
8415;SDS011;4245;42.120;24.732;2023-02-10T03:19:02;35.43;;;17.40;;
8415;SDS011;4245;42.120;24.732;2023-02-10T03:21:31;32.17;;;16.60;;
8415;SDS011;4245;42.120;24.732;2023-02-10T03:23:57;36.47;;;17.53;;
8415;SDS011;4245;42.120;24.732;2023-02-10T03:26:26;41.93;;;18.20;;
8415;SDS011;4245;42.120;24.732;2023-02-10T03:28:53;34.13;;;17.43;;
8415;SDS011;4245;42.120;24.732;2023-02-10T03:31:20;41.87;;;17.73;;
8415;SDS011;4245;42.120;24.732;2023-02-10T03:33:48;36.90;;;17.90;;
8415;SDS011;4245;42.120;24.732;2023-02-10T03:36:15;39.07;;;17.57;;
8415;SDS011;4245;42.120;24.732;2023-02-10T03:38:43;39.03;;;17.83;;
8415;SDS011;4245;42.120;24.732;2023-02-10T03:41:10;45.67;;;18.17;;
8415;SDS011;4245;42.120;24.732;2023-02-10T03:43:38;41.90;;;17.63;;
8415;SDS011;4245;42.120;24.732;2023-02-10T03:46:06;37.37;;;16.50;;
8415;SDS011;4245;42.120;24.732;2023-02-10T03:48:33;32.10;;;16.37;;
8415;SDS011;4245;42.120;24.732;2023-02-10T03:51:00;47.07;;;19.17;;
8415;SDS011;4245;42.120;24.732;2023-02-10T03:53:28;35.57;;;16.97;;
8415;SDS011;4245;42.120;24.732;2023-02-10T03:55:57;30.87;;;16.37;;
8415;SDS011;4245;42.120;24.732;2023-02-10T03:58:24;39.43;;;17.30;;
8415;SDS011;4245;42.120;24.732;2023-02-10T04:00:52;34.43;;;16.40;;
8415;SDS011;4245;42.120;24.732;2023-02-10T04:03:19;41.07;;;16.63;;
8415;SDS011;4245;42.120;24.732;2023-02-10T04:05:45;37.53;;;17.00;;
8415;SDS011;4245;42.120;24.732;2023-02-10T04:08:12;34.30;;;16.60;;
8415;SDS011;4245;42.120;24.732;2023-02-10T04:10:39;36.13;;;15.27;;
8415;SDS011;4245;42.120;24.732;2023-02-10T04:13:07;34.47;;;16.50;;
8415;SDS011;4245;42.120;24.732;2023-02-10T04:15:34;32.50;;;15.57;;
8415;SDS011;4245;42.120;24.732;2023-02-10T04:18:02;34.47;;;15.40;;
8415;SDS011;4245;42.120;24.732;2023-02-10T04:20:29;37.20;;;16.10;;
8415;SDS011;4245;42.120;24.732;2023-02-10T04:22:56;35.53;;;15.20;;
8415;SDS011;4245;42.120;24.732;2023-02-10T04:25:23;34.53;;;15.47;;
8415;SDS011;4245;42.120;24.732;2023-02-10T04:27:50;38.00;;;16.47;;
8415;SDS011;4245;42.120;24.732;2023-02-10T04:30:18;35.90;;;16.63;;
8415;SDS011;4245;42.120;24.732;2023-02-10T04:32:45;41.30;;;18.87;;
8415;SDS011;4245;42.120;24.732;2023-02-10T04:35:11;39.20;;;19.57;;
8415;SDS011;4245;42.120;24.732;2023-02-10T04:37:38;37.63;;;19.00;;
8415;SDS011;4245;42.120;24.732;2023-02-10T04:40:05;34.47;;;17.93;;
8415;SDS011;4245;42.120;24.732;2023-02-10T04:42:32;38.87;;;18.20;;
8415;SDS011;4245;42.120;24.732;2023-02-10T04:44:59;39.57;;;18.80;;
8415;SDS011;4245;42.120;24.732;2023-02-10T04:47:27;42.67;;;20.03;;
8415;SDS011;4245;42.120;24.732;2023-02-10T04:49:55;45.10;;;21.67;;
8415;SDS011;4245;42.120;24.732;2023-02-10T04:52:21;44.07;;;21.10;;
8415;SDS011;4245;42.120;24.732;2023-02-10T04:54:48;37.77;;;20.03;;
8415;SDS011;4245;42.120;24.732;2023-02-10T04:57:15;35.67;;;18.13;;
8415;SDS011;4245;42.120;24.732;2023-02-10T04:59:42;37.57;;;17.37;;
8415;SDS011;4245;42.120;24.732;2023-02-10T05:02:09;38.67;;;17.90;;
8415;SDS011;4245;42.120;24.732;2023-02-10T05:04:37;38.03;;;18.87;;
8415;SDS011;4245;42.120;24.732;2023-02-10T05:07:04;59.00;;;23.13;;
8415;SDS011;4245;42.120;24.732;2023-02-10T05:09:31;44.50;;;21.47;;
8415;SDS011;4245;42.120;24.732;2023-02-10T05:11:57;46.13;;;22.00;;
8415;SDS011;4245;42.120;24.732;2023-02-10T05:14:24;40.80;;;19.83;;
8415;SDS011;4245;42.120;24.732;2023-02-10T05:16:51;38.00;;;18.97;;
8415;SDS011;4245;42.120;24.732;2023-02-10T05:19:18;41.57;;;19.90;;
8415;SDS011;4245;42.120;24.732;2023-02-10T05:21:46;42.07;;;17.70;;
8415;SDS011;4245;42.120;24.732;2023-02-10T05:24:13;39.80;;;18.43;;
8415;SDS011;4245;42.120;24.732;2023-02-10T05:26:39;47.93;;;19.67;;
8415;SDS011;4245;42.120;24.732;2023-02-10T05:29:06;68.17;;;25.87;;
8415;SDS011;4245;42.120;24.732;2023-02-10T05:31:33;73.07;;;28.20;;
8415;SDS011;4245;42.120;24.732;2023-02-10T05:34:00;91.83;;;36.90;;
8415;SDS011;4245;42.120;24.732;2023-02-10T05:36:26;90.03;;;39.13;;
8415;SDS011;4245;42.120;24.732;2023-02-10T05:38:54;89.17;;;31.23;;
8415;SDS011;4245;42.120;24.732;2023-02-10T05:41:39;109.27;;;35.10;;
8415;SDS011;4245;42.120;24.732;2023-02-10T05:44:05;74.00;;;27.20;;
8415;SDS011;4245;42.120;24.732;2023-02-10T05:46:32;96.37;;;33.30;;
8415;SDS011;4245;42.120;24.732;2023-02-10T05:48:59;77.63;;;31.07;;
8415;SDS011;4245;42.120;24.732;2023-02-10T05:51:26;63.30;;;25.00;;
8415;SDS011;4245;42.120;24.732;2023-02-10T05:53:55;45.67;;;20.87;;
8415;SDS011;4245;42.120;24.732;2023-02-10T05:56:22;39.00;;;17.77;;
8415;SDS011;4245;42.120;24.732;2023-02-10T05:58:49;45.73;;;18.23;;
8415;SDS011;4245;42.120;24.732;2023-02-10T06:01:16;42.93;;;16.87;;
8415;SDS011;4245;42.120;24.732;2023-02-10T06:03:43;31.33;;;14.57;;
8415;SDS011;4245;42.120;24.732;2023-02-10T06:06:09;25.87;;;13.47;;
8415;SDS011;4245;42.120;24.732;2023-02-10T06:08:36;28.77;;;13.13;;
8415;SDS011;4245;42.120;24.732;2023-02-10T06:11:04;36.00;;;13.50;;
8415;SDS011;4245;42.120;24.732;2023-02-10T06:13:31;29.07;;;13.50;;
8415;SDS011;4245;42.120;24.732;2023-02-10T06:15:58;32.00;;;13.97;;
8415;SDS011;4245;42.120;24.732;2023-02-10T06:18:26;31.33;;;13.57;;
8415;SDS011;4245;42.120;24.732;2023-02-10T06:20:53;36.30;;;13.67;;
8415;SDS011;4245;42.120;24.732;2023-02-10T06:23:21;30.87;;;15.00;;
8415;SDS011;4245;42.120;24.732;2023-02-10T06:25:48;36.27;;;15.80;;
8415;SDS011;4245;42.120;24.732;2023-02-10T06:28:20;33.03;;;16.33;;
8415;SDS011;4245;42.120;24.732;2023-02-10T06:30:47;26.97;;;13.00;;
8415;SDS011;4245;42.120;24.732;2023-02-10T06:33:14;28.80;;;13.47;;
8415;SDS011;4245;42.120;24.732;2023-02-10T06:35:41;20.27;;;10.47;;
8415;SDS011;4245;42.120;24.732;2023-02-10T06:38:07;21.57;;;11.40;;
8415;SDS011;4245;42.120;24.732;2023-02-10T06:40:34;23.90;;;11.60;;
8415;SDS011;4245;42.120;24.732;2023-02-10T06:43:01;28.17;;;12.47;;
8415;SDS011;4245;42.120;24.732;2023-02-10T06:45:30;22.50;;;10.57;;
8415;SDS011;4245;42.120;24.732;2023-02-10T06:47:57;29.27;;;11.87;;
8415;SDS011;4245;42.120;24.732;2023-02-10T06:50:24;32.90;;;13.73;;
8415;SDS011;4245;42.120;24.732;2023-02-10T06:52:51;26.67;;;13.27;;
8415;SDS011;4245;42.120;24.732;2023-02-10T06:55:18;32.63;;;13.23;;
8415;SDS011;4245;42.120;24.732;2023-02-10T06:57:45;22.60;;;11.60;;
8415;SDS011;4245;42.120;24.732;2023-02-10T07:00:13;22.70;;;11.80;;
8415;SDS011;4245;42.120;24.732;2023-02-10T07:02:42;18.13;;;10.93;;
8415;SDS011;4245;42.120;24.732;2023-02-10T07:05:10;21.93;;;10.00;;
8415;SDS011;4245;42.120;24.732;2023-02-10T07:07:37;21.23;;;10.20;;
8415;SDS011;4245;42.120;24.732;2023-02-10T07:10:04;21.73;;;10.53;;
8415;SDS011;4245;42.120;24.732;2023-02-10T07:12:32;17.40;;;8.77;;
8415;SDS011;4245;42.120;24.732;2023-02-10T07:14:59;20.37;;;9.47;;
8415;SDS011;4245;42.120;24.732;2023-02-10T07:17:26;19.90;;;9.67;;
8415;SDS011;4245;42.120;24.732;2023-02-10T07:19:54;18.47;;;10.30;;
8415;SDS011;4245;42.120;24.732;2023-02-10T07:22:21;18.83;;;9.83;;
8415;SDS011;4245;42.120;24.732;2023-02-10T07:24:48;26.10;;;10.27;;
8415;SDS011;4245;42.120;24.732;2023-02-10T07:27:14;24.30;;;12.07;;
8415;SDS011;4245;42.120;24.732;2023-02-10T07:29:41;20.53;;;10.73;;
8415;SDS011;4245;42.120;24.732;2023-02-10T07:32:08;18.20;;;9.80;;
8415;SDS011;4245;42.120;24.732;2023-02-10T07:34:35;19.67;;;9.20;;
8415;SDS011;4245;42.120;24.732;2023-02-10T07:37:03;18.83;;;11.43;;
8415;SDS011;4245;42.120;24.732;2023-02-10T07:39:30;22.43;;;11.10;;
8415;SDS011;4245;42.120;24.732;2023-02-10T07:41:56;21.70;;;11.03;;
8415;SDS011;4245;42.120;24.732;2023-02-10T07:46:58;25.70;;;11.10;;
8415;SDS011;4245;42.120;24.732;2023-02-10T07:49:25;18.80;;;9.33;;
8415;SDS011;4245;42.120;24.732;2023-02-10T07:51:53;21.27;;;10.50;;
8415;SDS011;4245;42.120;24.732;2023-02-10T07:54:22;22.47;;;11.40;;
8415;SDS011;4245;42.120;24.732;2023-02-10T07:56:49;27.17;;;11.20;;
8415;SDS011;4245;42.120;24.732;2023-02-10T07:59:15;21.63;;;11.30;;
8415;SDS011;4245;42.120;24.732;2023-02-10T08:01:42;24.03;;;11.13;;
8415;SDS011;4245;42.120;24.732;2023-02-10T08:04:10;23.37;;;10.93;;
8415;SDS011;4245;42.120;24.732;2023-02-10T08:06:37;23.60;;;11.47;;
8415;SDS011;4245;42.120;24.732;2023-02-10T08:09:04;19.67;;;10.33;;
8415;SDS011;4245;42.120;24.732;2023-02-10T08:11:32;21.23;;;9.83;;
8415;SDS011;4245;42.120;24.732;2023-02-10T08:14:00;23.07;;;10.80;;
8415;SDS011;4245;42.120;24.732;2023-02-10T08:16:27;21.63;;;10.33;;
8415;SDS011;4245;42.120;24.732;2023-02-10T08:18:54;22.60;;;11.03;;
8415;SDS011;4245;42.120;24.732;2023-02-10T08:21:21;20.80;;;10.60;;
8415;SDS011;4245;42.120;24.732;2023-02-10T08:23:47;17.13;;;9.63;;
8415;SDS011;4245;42.120;24.732;2023-02-10T08:26:19;22.43;;;10.97;;
8415;SDS011;4245;42.120;24.732;2023-02-10T08:28:48;21.17;;;11.63;;
8415;SDS011;4245;42.120;24.732;2023-02-10T08:31:16;18.87;;;10.60;;
8415;SDS011;4245;42.120;24.732;2023-02-10T08:33:43;21.73;;;10.23;;
8415;SDS011;4245;42.120;24.732;2023-02-10T08:36:10;28.40;;;9.93;;
8415;SDS011;4245;42.120;24.732;2023-02-10T08:38:39;22.70;;;11.03;;
8415;SDS011;4245;42.120;24.732;2023-02-10T08:41:06;18.57;;;10.30;;
8415;SDS011;4245;42.120;24.732;2023-02-10T08:43:33;16.60;;;9.77;;
8415;SDS011;4245;42.120;24.732;2023-02-10T08:46:01;20.00;;;10.50;;
8415;SDS011;4245;42.120;24.732;2023-02-10T08:48:30;17.30;;;9.20;;
8415;SDS011;4245;42.120;24.732;2023-02-10T08:50:57;15.43;;;8.67;;
8415;SDS011;4245;42.120;24.732;2023-02-10T08:53:24;14.77;;;8.27;;
8415;SDS011;4245;42.120;24.732;2023-02-10T08:55:55;15.47;;;8.93;;
8415;SDS011;4245;42.120;24.732;2023-02-10T08:58:23;15.90;;;8.93;;
8415;SDS011;4245;42.120;24.732;2023-02-10T09:00:50;26.13;;;17.03;;
8415;SDS011;4245;42.120;24.732;2023-02-10T09:03:18;84.43;;;38.30;;
8415;SDS011;4245;42.120;24.732;2023-02-10T09:05:45;96.27;;;65.90;;
8415;SDS011;4245;42.120;24.732;2023-02-10T09:08:14;19.90;;;11.13;;
8415;SDS011;4245;42.120;24.732;2023-02-10T09:10:41;20.27;;;9.20;;
8415;SDS011;4245;42.120;24.732;2023-02-10T09:13:09;18.63;;;10.27;;
8415;SDS011;4245;42.120;24.732;2023-02-10T09:15:36;20.70;;;11.10;;
8415;SDS011;4245;42.120;24.732;2023-02-10T09:18:04;17.40;;;10.00;;
8415;SDS011;4245;42.120;24.732;2023-02-10T09:20:32;15.90;;;9.20;;
8415;SDS011;4245;42.120;24.732;2023-02-10T09:22:59;16.77;;;9.20;;
8415;SDS011;4245;42.120;24.732;2023-02-10T09:25:26;20.27;;;10.53;;
8415;SDS011;4245;42.120;24.732;2023-02-10T09:27:53;16.33;;;10.40;;
8415;SDS011;4245;42.120;24.732;2023-02-10T09:30:22;16.70;;;9.90;;
8415;SDS011;4245;42.120;24.732;2023-02-10T09:32:49;18.27;;;10.43;;
8415;SDS011;4245;42.120;24.732;2023-02-10T09:35:16;19.00;;;10.17;;
8415;SDS011;4245;42.120;24.732;2023-02-10T09:37:45;15.37;;;9.47;;
8415;SDS011;4245;42.120;24.732;2023-02-10T09:40:15;16.17;;;9.63;;
8415;SDS011;4245;42.120;24.732;2023-02-10T09:42:46;16.57;;;9.83;;
8415;SDS011;4245;42.120;24.732;2023-02-10T09:45:29;18.30;;;9.53;;
8415;SDS011;4245;42.120;24.732;2023-02-10T09:48:00;21.87;;;10.10;;
8415;SDS011;4245;42.120;24.732;2023-02-10T09:50:43;16.13;;;10.17;;
8415;SDS011;4245;42.120;24.732;2023-02-10T09:53:19;13.63;;;8.93;;
8415;SDS011;4245;42.120;24.732;2023-02-10T09:55:50;19.60;;;9.10;;
8415;SDS011;4245;42.120;24.732;2023-02-10T09:58:22;16.80;;;9.47;;
8415;SDS011;4245;42.120;24.732;2023-02-10T10:00:57;17.43;;;10.20;;
8415;SDS011;4245;42.120;24.732;2023-02-10T10:03:30;15.60;;;9.40;;
8415;SDS011;4245;42.120;24.732;2023-02-10T10:06:06;17.77;;;10.23;;
8415;SDS011;4245;42.120;24.732;2023-02-10T10:08:44;18.10;;;10.50;;
8415;SDS011;4245;42.120;24.732;2023-02-10T10:11:22;20.53;;;11.57;;
8415;SDS011;4245;42.120;24.732;2023-02-10T10:13:52;20.90;;;10.47;;
8415;SDS011;4245;42.120;24.732;2023-02-10T10:16:23;18.90;;;10.00;;
8415;SDS011;4245;42.120;24.732;2023-02-10T10:19:03;19.27;;;9.87;;
8415;SDS011;4245;42.120;24.732;2023-02-10T10:21:40;17.10;;;9.37;;
8415;SDS011;4245;42.120;24.732;2023-02-10T10:24:19;64.23;;;43.00;;
8415;SDS011;4245;42.120;24.732;2023-02-10T10:27:03;39.67;;;25.67;;
8415;SDS011;4245;42.120;24.732;2023-02-10T10:29:39;19.47;;;10.27;;
8415;SDS011;4245;42.120;24.732;2023-02-10T10:32:15;19.77;;;10.10;;
8415;SDS011;4245;42.120;24.732;2023-02-10T10:34:45;16.13;;;10.57;;
8415;SDS011;4245;42.120;24.732;2023-02-10T10:37:18;18.53;;;11.20;;
8415;SDS011;4245;42.120;24.732;2023-02-10T10:39:47;20.17;;;10.30;;
8415;SDS011;4245;42.120;24.732;2023-02-10T10:42:19;17.10;;;10.03;;
8415;SDS011;4245;42.120;24.732;2023-02-10T10:44:50;19.40;;;10.33;;
8415;SDS011;4245;42.120;24.732;2023-02-10T10:47:34;18.20;;;11.27;;
8415;SDS011;4245;42.120;24.732;2023-02-10T10:50:10;15.53;;;10.20;;
8415;SDS011;4245;42.120;24.732;2023-02-10T10:52:41;15.70;;;9.80;;
8415;SDS011;4245;42.120;24.732;2023-02-10T10:55:12;27.33;;;12.17;;
8415;SDS011;4245;42.120;24.732;2023-02-10T10:57:44;16.63;;;10.37;;
8415;SDS011;4245;42.120;24.732;2023-02-10T11:00:16;16.50;;;9.53;;
8415;SDS011;4245;42.120;24.732;2023-02-10T11:02:54;14.97;;;8.97;;
8415;SDS011;4245;42.120;24.732;2023-02-10T11:05:25;13.33;;;9.30;;
8415;SDS011;4245;42.120;24.732;2023-02-10T11:07:54;18.20;;;10.43;;
8415;SDS011;4245;42.120;24.732;2023-02-10T11:10:24;20.63;;;12.33;;
8415;SDS011;4245;42.120;24.732;2023-02-10T11:12:53;15.97;;;10.63;;
8415;SDS011;4245;42.120;24.732;2023-02-10T11:15:27;20.47;;;10.43;;
8415;SDS011;4245;42.120;24.732;2023-02-10T11:18:01;16.27;;;10.97;;
8415;SDS011;4245;42.120;24.732;2023-02-10T11:20:31;16.20;;;10.33;;
8415;SDS011;4245;42.120;24.732;2023-02-10T11:23:01;18.17;;;11.13;;
8415;SDS011;4245;42.120;24.732;2023-02-10T11:25:31;20.07;;;9.67;;
8415;SDS011;4245;42.120;24.732;2023-02-10T11:28:00;19.03;;;10.07;;
8415;SDS011;4245;42.120;24.732;2023-02-10T11:30:29;27.33;;;12.77;;
8415;SDS011;4245;42.120;24.732;2023-02-10T11:32:58;24.50;;;12.37;;
8415;SDS011;4245;42.120;24.732;2023-02-10T11:35:27;21.53;;;12.53;;
8415;SDS011;4245;42.120;24.732;2023-02-10T11:37:56;17.33;;;10.00;;
8415;SDS011;4245;42.120;24.732;2023-02-10T11:40:27;14.60;;;9.50;;
8415;SDS011;4245;42.120;24.732;2023-02-10T11:42:56;17.50;;;10.13;;
8415;SDS011;4245;42.120;24.732;2023-02-10T11:45:26;29.07;;;10.10;;
8415;SDS011;4245;42.120;24.732;2023-02-10T11:48:01;21.83;;;9.60;;
8415;SDS011;4245;42.120;24.732;2023-02-10T11:50:30;16.17;;;9.00;;
8415;SDS011;4245;42.120;24.732;2023-02-10T11:52:58;17.23;;;10.47;;
8415;SDS011;4245;42.120;24.732;2023-02-10T11:55:27;16.03;;;9.60;;
8415;SDS011;4245;42.120;24.732;2023-02-10T11:58:07;12.57;;;8.93;;
8415;SDS011;4245;42.120;24.732;2023-02-10T12:01:13;12.33;;;9.10;;
8415;SDS011;4245;42.120;24.732;2023-02-10T12:06:39;15.27;;;8.13;;
8415;SDS011;4245;42.120;24.732;2023-02-10T12:09:11;17.07;;;8.73;;
8415;SDS011;4245;42.120;24.732;2023-02-10T12:11:48;14.17;;;8.67;;
8415;SDS011;4245;42.120;24.732;2023-02-10T12:14:28;17.53;;;10.37;;
8415;SDS011;4245;42.120;24.732;2023-02-10T12:17:13;15.67;;;8.60;;
8415;SDS011;4245;42.120;24.732;2023-02-10T12:19:53;15.33;;;8.50;;
8415;SDS011;4245;42.120;24.732;2023-02-10T12:22:34;12.97;;;8.60;;
8415;SDS011;4245;42.120;24.732;2023-02-10T12:25:11;12.60;;;8.37;;
8415;SDS011;4245;42.120;24.732;2023-02-10T12:27:47;13.10;;;8.70;;
8415;SDS011;4245;42.120;24.732;2023-02-10T12:30:28;17.43;;;10.20;;
8415;SDS011;4245;42.120;24.732;2023-02-10T12:33:04;15.40;;;9.27;;
8415;SDS011;4245;42.120;24.732;2023-02-10T12:35:46;17.00;;;9.57;;
8415;SDS011;4245;42.120;24.732;2023-02-10T12:38:27;14.87;;;9.50;;
8415;SDS011;4245;42.120;24.732;2023-02-10T12:41:11;15.40;;;9.80;;
8415;SDS011;4245;42.120;24.732;2023-02-10T12:46:45;16.67;;;9.17;;
8415;SDS011;4245;42.120;24.732;2023-02-10T12:49:28;15.50;;;8.83;;
8415;SDS011;4245;42.120;24.732;2023-02-10T12:52:06;13.20;;;9.27;;
8415;SDS011;4245;42.120;24.732;2023-02-10T12:54:40;13.03;;;9.30;;
8415;SDS011;4245;42.120;24.732;2023-02-10T12:57:13;13.63;;;9.07;;
8415;SDS011;4245;42.120;24.732;2023-02-10T12:59:47;14.67;;;9.40;;
8415;SDS011;4245;42.120;24.732;2023-02-10T13:02:22;15.00;;;9.77;;
8415;SDS011;4245;42.120;24.732;2023-02-10T13:04:55;21.73;;;9.77;;
8415;SDS011;4245;42.120;24.732;2023-02-10T13:07:28;17.33;;;10.13;;
8415;SDS011;4245;42.120;24.732;2023-02-10T13:10:02;12.73;;;8.73;;
8415;SDS011;4245;42.120;24.732;2023-02-10T13:12:42;16.10;;;9.37;;
8415;SDS011;4245;42.120;24.732;2023-02-10T13:15:14;18.10;;;9.70;;
8415;SDS011;4245;42.120;24.732;2023-02-10T13:17:47;15.70;;;10.10;;
8415;SDS011;4245;42.120;24.732;2023-02-10T13:23:10;13.87;;;9.40;;
8415;SDS011;4245;42.120;24.732;2023-02-10T13:25:48;15.00;;;9.03;;
8415;SDS011;4245;42.120;24.732;2023-02-10T13:28:24;13.90;;;9.23;;
8415;SDS011;4245;42.120;24.732;2023-02-10T13:34:14;16.53;;;9.10;;
8415;SDS011;4245;42.120;24.732;2023-02-10T13:36:45;17.83;;;8.57;;
8415;SDS011;4245;42.120;24.732;2023-02-10T13:39:19;11.27;;;8.10;;
8415;SDS011;4245;42.120;24.732;2023-02-10T13:41:48;13.27;;;8.70;;
8415;SDS011;4245;42.120;24.732;2023-02-10T13:44:22;15.40;;;8.63;;
8415;SDS011;4245;42.120;24.732;2023-02-10T13:46:53;12.97;;;8.10;;
8415;SDS011;4245;42.120;24.732;2023-02-10T13:49:25;13.00;;;8.00;;
8415;SDS011;4245;42.120;24.732;2023-02-10T13:52:00;14.50;;;8.67;;
8415;SDS011;4245;42.120;24.732;2023-02-10T13:54:33;13.63;;;8.53;;
8415;SDS011;4245;42.120;24.732;2023-02-10T13:57:01;12.93;;;7.73;;
8415;SDS011;4245;42.120;24.732;2023-02-10T13:59:35;12.40;;;8.90;;
8415;SDS011;4245;42.120;24.732;2023-02-10T14:04:49;13.13;;;8.47;;
8415;SDS011;4245;42.120;24.732;2023-02-10T14:07:32;13.67;;;8.80;;
8415;SDS011;4245;42.120;24.732;2023-02-10T14:10:03;15.83;;;9.10;;
8415;SDS011;4245;42.120;24.732;2023-02-10T14:12:53;15.13;;;8.60;;
8415;SDS011;4245;42.120;24.732;2023-02-10T14:15:22;13.83;;;8.93;;
8415;SDS011;4245;42.120;24.732;2023-02-10T14:17:57;13.40;;;9.03;;
8415;SDS011;4245;42.120;24.732;2023-02-10T14:20:28;17.43;;;8.80;;
8415;SDS011;4245;42.120;24.732;2023-02-10T14:22:59;15.50;;;8.40;;
8415;SDS011;4245;42.120;24.732;2023-02-10T14:25:29;17.90;;;8.67;;
8415;SDS011;4245;42.120;24.732;2023-02-10T14:27:58;15.13;;;8.73;;
8415;SDS011;4245;42.120;24.732;2023-02-10T14:30:31;15.50;;;8.67;;
8415;SDS011;4245;42.120;24.732;2023-02-10T14:33:15;12.73;;;8.10;;
8415;SDS011;4245;42.120;24.732;2023-02-10T14:35:51;13.23;;;8.63;;
8415;SDS011;4245;42.120;24.732;2023-02-10T14:38:20;11.77;;;8.13;;
8415;SDS011;4245;42.120;24.732;2023-02-10T14:40:48;14.43;;;8.20;;
8415;SDS011;4245;42.120;24.732;2023-02-10T14:43:18;14.03;;;8.00;;
8415;SDS011;4245;42.120;24.732;2023-02-10T14:45:51;14.23;;;8.30;;
8415;SDS011;4245;42.120;24.732;2023-02-10T14:48:18;22.40;;;12.63;;
8415;SDS011;4245;42.120;24.732;2023-02-10T14:50:58;16.83;;;8.63;;
8415;SDS011;4245;42.120;24.732;2023-02-10T14:53:27;13.33;;;8.57;;
8415;SDS011;4245;42.120;24.732;2023-02-10T14:55:55;16.03;;;9.00;;
8415;SDS011;4245;42.120;24.732;2023-02-10T14:58:23;19.93;;;9.87;;
8415;SDS011;4245;42.120;24.732;2023-02-10T15:00:54;26.90;;;10.07;;
8415;SDS011;4245;42.120;24.732;2023-02-10T15:03:25;22.73;;;9.90;;
8415;SDS011;4245;42.120;24.732;2023-02-10T15:05:53;18.57;;;9.50;;
8415;SDS011;4245;42.120;24.732;2023-02-10T15:08:28;19.87;;;10.10;;
8415;SDS011;4245;42.120;24.732;2023-02-10T15:11:06;21.17;;;10.03;;
8415;SDS011;4245;42.120;24.732;2023-02-10T15:13:40;16.10;;;10.20;;